createdAt,value
2019-01-29T00:00:02.000Z,0.875
2019-01-29T00:01:01.000Z,0.875
2019-01-29T00:02:01.000Z,0.875
2019-01-29T00:03:01.000Z,0.812
2019-01-29T00:04:01.000Z,0.812
2019-01-29T00:05:01.000Z,0.812
2019-01-29T00:06:02.000Z,0.875
2019-01-29T00:07:01.000Z,0.812
2019-01-29T00:08:01.000Z,0.875
2019-01-29T00:09:02.000Z,0.875
2019-01-29T00:10:01.000Z,0.875
2019-01-29T00:11:01.000Z,0.875
2019-01-29T00:12:01.000Z,0.875
2019-01-29T00:13:02.000Z,0.812
2019-01-29T00:14:01.000Z,0.812
2019-01-29T00:15:01.000Z,0.812
2019-01-29T00:16:02.000Z,0.812
2019-01-29T00:17:01.000Z,0.812
2019-01-29T00:18:02.000Z,0.812
2019-01-29T00:19:01.000Z,0.812
2019-01-29T00:20:02.000Z,0.812
2019-01-29T00:21:01.000Z,0.812
2019-01-29T00:22:01.000Z,0.812
2019-01-29T00:23:01.000Z,0.812
2019-01-29T00:24:01.000Z,0.812
2019-01-29T00:25:01.000Z,0.812
2019-01-29T00:26:01.000Z,0.812
2019-01-29T00:27:01.000Z,0.812
2019-01-29T00:28:01.000Z,0.812
2019-01-29T00:29:02.000Z,0.812
2019-01-29T00:30:01.000Z,0.812
2019-01-29T00:31:01.000Z,0.812
2019-01-29T00:32:02.000Z,0.812
2019-01-29T00:33:01.000Z,0.812
2019-01-29T00:34:01.000Z,0.812
2019-01-29T00:35:02.000Z,0.812
2019-01-29T00:36:01.000Z,0.812
2019-01-29T00:37:01.000Z,0.812
2019-01-29T00:38:02.000Z,0.812
2019-01-29T00:39:01.000Z,0.812
2019-01-29T00:40:01.000Z,0.812
2019-01-29T00:41:02.000Z,0.875
2019-01-29T00:42:01.000Z,0.875
2019-01-29T00:43:01.000Z,0.875
2019-01-29T00:44:01.000Z,0.875
2019-01-29T00:45:01.000Z,0.875
2019-01-29T00:46:02.000Z,0.937
2019-01-29T00:47:01.000Z,0.875
2019-01-29T00:48:01.000Z,0.875
2019-01-29T00:49:02.000Z,0.875
2019-01-29T00:50:01.000Z,0.937
2019-01-29T00:51:01.000Z,0.937
2019-01-29T00:52:02.000Z,0.937
2019-01-29T00:53:01.000Z,0.937
2019-01-29T00:54:01.000Z,0.937
2019-01-29T00:55:02.000Z,0.937
2019-01-29T00:56:01.000Z,0.937
2019-01-29T00:57:01.000Z,0.937
2019-01-29T00:58:02.000Z,0.937
2019-01-29T00:59:01.000Z,0.937
2019-01-29T01:00:01.000Z,0.937
2019-01-29T01:01:01.000Z,0.937
2019-01-29T01:02:01.000Z,0.875
2019-01-29T01:03:02.000Z,0.875
2019-01-29T01:04:01.000Z,0.875
2019-01-29T01:05:01.000Z,0.812
2019-01-29T01:06:01.000Z,0.75
2019-01-29T01:07:01.000Z,0.75
2019-01-29T01:08:01.000Z,0.687
2019-01-29T01:09:01.000Z,0.687
2019-01-29T01:10:01.000Z,0.687
2019-01-29T01:11:01.000Z,0.625
2019-01-29T01:12:01.000Z,0.687
2019-01-29T01:13:02.000Z,0.625
2019-01-29T01:14:01.000Z,0.687
2019-01-29T01:15:01.000Z,0.687
2019-01-29T01:16:02.000Z,0.687
2019-01-29T01:17:01.000Z,0.687
2019-01-29T01:18:02.000Z,0.687
2019-01-29T01:19:01.000Z,0.687
2019-01-29T01:20:01.000Z,0.687
2019-01-29T01:21:02.000Z,0.75
2019-01-29T01:22:01.000Z,0.75
2019-01-29T01:23:01.000Z,0.75
2019-01-29T01:24:01.000Z,0.75
2019-01-29T01:25:01.000Z,0.812
2019-01-29T01:26:01.000Z,0.812
2019-01-29T01:27:02.000Z,0.812
2019-01-29T01:28:01.000Z,0.812
2019-01-29T01:29:01.000Z,0.812
2019-01-29T01:30:02.000Z,0.812
2019-01-29T01:31:01.000Z,0.812
2019-01-29T01:32:01.000Z,0.812
2019-01-29T01:33:01.000Z,0.812
2019-01-29T01:34:01.000Z,0.812
2019-01-29T01:35:01.000Z,0.875
2019-01-29T01:36:01.000Z,0.875
2019-01-29T01:37:01.000Z,0.875
2019-01-29T01:38:01.000Z,0.875
2019-01-29T01:39:01.000Z,0.875
2019-01-29T01:40:01.000Z,0.875
2019-01-29T01:41:01.000Z,0.875
2019-01-29T01:42:01.000Z,0.937
2019-01-29T01:43:02.000Z,0.937
2019-01-29T01:44:01.000Z,0.937
2019-01-29T01:45:01.000Z,0.937
2019-01-29T01:46:02.000Z,0.937
2019-01-29T01:47:01.000Z,0.937
2019-01-29T01:48:01.000Z,0.937
2019-01-29T01:49:02.000Z,0.937
2019-01-29T01:50:01.000Z,0.937
2019-01-29T01:51:01.000Z,1
2019-01-29T01:52:02.000Z,0.937
2019-01-29T01:53:01.000Z,1
2019-01-29T01:54:01.000Z,1
2019-01-29T01:55:02.000Z,1
2019-01-29T01:56:01.000Z,1
2019-01-29T01:57:01.000Z,1
2019-01-29T01:58:01.000Z,1
2019-01-29T01:59:01.000Z,1
2019-01-29T02:00:01.000Z,0.937
2019-01-29T02:01:02.000Z,0.937
2019-01-29T02:02:01.000Z,0.937
2019-01-29T02:03:01.000Z,0.937
2019-01-29T02:04:02.000Z,0.937
2019-01-29T02:05:01.000Z,0.937
2019-01-29T02:06:01.000Z,0.875
2019-01-29T02:07:02.000Z,0.875
2019-01-29T02:08:01.000Z,0.875
2019-01-29T02:09:02.000Z,0.875
2019-01-29T02:10:01.000Z,0.812
2019-01-29T02:11:01.000Z,0.812
2019-01-29T02:12:01.000Z,0.812
2019-01-29T02:13:02.000Z,0.812
2019-01-29T02:14:01.000Z,0.812
2019-01-29T02:15:01.000Z,0.812
2019-01-29T02:16:02.000Z,0.75
2019-01-29T02:17:01.000Z,0.75
2019-01-29T02:18:01.000Z,0.687
2019-01-29T02:19:01.000Z,0.687
2019-01-29T02:20:01.000Z,0.625
2019-01-29T02:21:01.000Z,0.562
2019-01-29T02:22:02.000Z,0.5
2019-01-29T02:23:01.000Z,0.5
2019-01-29T02:24:01.000Z,0.437
2019-01-29T02:25:01.000Z,0.375
2019-01-29T02:26:01.000Z,0.375
2019-01-29T02:27:01.000Z,0.312
2019-01-29T02:28:01.000Z,0.25
2019-01-29T02:29:01.000Z,0.25
2019-01-29T02:30:01.000Z,0.187
2019-01-29T02:31:01.000Z,0.187
2019-01-29T02:32:01.000Z,0.125
2019-01-29T02:33:01.000Z,0.125
2019-01-29T02:34:01.000Z,0.062
2019-01-29T02:35:01.000Z,0.062
2019-01-29T02:36:01.000Z,0.062
2019-01-29T02:37:02.000Z,0.062
2019-01-29T02:38:01.000Z,0
2019-01-29T02:39:02.000Z,0
2019-01-29T02:40:01.000Z,0
2019-01-29T02:41:01.000Z,0
2019-01-29T02:42:01.000Z,0
2019-01-29T02:43:01.000Z,0
2019-01-29T02:44:01.000Z,-0.062
2019-01-29T02:45:01.000Z,-0.062
2019-01-29T02:46:01.000Z,-0.062
2019-01-29T02:47:01.000Z,0
2019-01-29T02:48:01.000Z,-0.062
2019-01-29T02:49:01.000Z,0
2019-01-29T02:50:01.000Z,-0.062
2019-01-29T02:51:02.000Z,-0.062
2019-01-29T02:52:01.000Z,-0.062
2019-01-29T02:53:01.000Z,-0.062
2019-01-29T02:54:01.000Z,-0.062
2019-01-29T02:55:01.000Z,-0.062
2019-01-29T02:56:02.000Z,-0.062
2019-01-29T02:57:01.000Z,-0.062
2019-01-29T02:58:01.000Z,-0.062
2019-01-29T02:59:02.000Z,-0.062
2019-01-29T03:00:01.000Z,-0.062
2019-01-29T03:01:01.000Z,-0.062
2019-01-29T03:02:02.000Z,-0.062
2019-01-29T03:03:01.000Z,-0.125
2019-01-29T03:04:02.000Z,-0.125
2019-01-29T03:05:01.000Z,-0.125
2019-01-29T03:06:02.000Z,-0.062
2019-01-29T03:07:01.000Z,-0.062
2019-01-29T03:08:01.000Z,-0.125
2019-01-29T03:09:01.000Z,-0.125
2019-01-29T03:10:02.000Z,-0.125
2019-01-29T03:11:01.000Z,-0.125
2019-01-29T03:12:01.000Z,-0.125
2019-01-29T03:13:02.000Z,-0.125
2019-01-29T03:14:01.000Z,-0.125
2019-01-29T03:15:01.000Z,-0.125
2019-01-29T03:16:02.000Z,-0.125
2019-01-29T03:17:01.000Z,-0.125
2019-01-29T03:18:02.000Z,-0.125
2019-01-29T03:19:01.000Z,-0.125
2019-01-29T03:20:02.000Z,-0.187
2019-01-29T03:21:01.000Z,-0.187
2019-01-29T03:22:01.000Z,-0.187
2019-01-29T03:23:01.000Z,-0.187
2019-01-29T03:24:01.000Z,-0.187
2019-01-29T03:25:02.000Z,-0.187
2019-01-29T03:26:01.000Z,-0.187
2019-01-29T03:27:01.000Z,-0.125
2019-01-29T03:28:01.000Z,-0.187
2019-01-29T03:29:01.000Z,-0.187
2019-01-29T03:30:01.000Z,-0.187
2019-01-29T03:31:02.000Z,-0.187
2019-01-29T03:32:01.000Z,-0.187
2019-01-29T03:33:01.000Z,-0.187
2019-01-29T03:34:02.000Z,-0.187
2019-01-29T03:36:01.000Z,-0.187
2019-01-29T03:37:01.000Z,-0.187
2019-01-29T03:38:02.000Z,-0.187
2019-01-29T03:39:01.000Z,-0.187
2019-01-29T03:40:01.000Z,-0.187
2019-01-29T03:41:01.000Z,-0.187
2019-01-29T03:42:01.000Z,-0.187
2019-01-29T03:43:02.000Z,-0.187
2019-01-29T03:44:01.000Z,-0.187
2019-01-29T03:45:01.000Z,-0.187
2019-01-29T03:46:02.000Z,-0.25
2019-01-29T03:47:01.000Z,-0.25
2019-01-29T03:48:01.000Z,-0.187
2019-01-29T03:49:02.000Z,-0.187
2019-01-29T03:50:01.000Z,-0.187
2019-01-29T03:51:02.000Z,-0.187
2019-01-29T03:52:01.000Z,-0.25
2019-01-29T03:53:01.000Z,-0.25
2019-01-29T03:54:02.000Z,-0.25
2019-01-29T03:55:01.000Z,-0.25
2019-01-29T03:56:02.000Z,-0.25
2019-01-29T03:57:01.000Z,-0.25
2019-01-29T03:58:01.000Z,-0.312
2019-01-29T03:59:01.000Z,-0.25
2019-01-29T04:00:01.000Z,-0.25
2019-01-29T04:01:01.000Z,-0.25
2019-01-29T04:02:01.000Z,-0.25
2019-01-29T04:03:01.000Z,-0.25
2019-01-29T04:04:01.000Z,-0.25
2019-01-29T04:05:01.000Z,-0.25
2019-01-29T04:06:01.000Z,-0.25
2019-01-29T04:07:01.000Z,-0.25
2019-01-29T04:08:02.000Z,-0.312
2019-01-29T04:09:01.000Z,-0.312
2019-01-29T04:10:01.000Z,-0.312
2019-01-29T04:11:01.000Z,-0.312
2019-01-29T04:12:01.000Z,-0.312
2019-01-29T04:13:01.000Z,-0.312
2019-01-29T04:14:01.000Z,-0.312
2019-01-29T04:15:01.000Z,-0.312
2019-01-29T04:16:02.000Z,-0.312
2019-01-29T04:17:01.000Z,-0.312
2019-01-29T04:18:01.000Z,-0.312
2019-01-29T04:19:02.000Z,-0.312
2019-01-29T04:20:01.000Z,-0.375
2019-01-29T04:21:01.000Z,-0.375
2019-01-29T04:22:02.000Z,-0.375
2019-01-29T04:23:01.000Z,-0.375
2019-01-29T04:24:01.000Z,-0.375
2019-01-29T04:25:02.000Z,-0.375
2019-01-29T04:26:01.000Z,-0.375
2019-01-29T04:27:01.000Z,-0.375
2019-01-29T04:28:02.000Z,-0.375
2019-01-29T04:29:02.000Z,-0.437
2019-01-29T04:30:01.000Z,-0.437
2019-01-29T04:31:01.000Z,-0.437
2019-01-29T04:32:01.000Z,-0.437
2019-01-29T04:33:01.000Z,-0.5
2019-01-29T04:34:01.000Z,-0.5
2019-01-29T04:35:01.000Z,-0.5
2019-01-29T04:36:01.000Z,-0.5
2019-01-29T04:37:02.000Z,-0.5
2019-01-29T04:38:01.000Z,-0.5
2019-01-29T04:39:01.000Z,-0.562
2019-01-29T04:40:02.000Z,-0.562
2019-01-29T04:41:01.000Z,-0.562
2019-01-29T04:42:01.000Z,-0.562
2019-01-29T04:43:02.000Z,-0.562
2019-01-29T04:44:01.000Z,-0.562
2019-01-29T04:45:01.000Z,-0.562
2019-01-29T04:46:01.000Z,-0.625
2019-01-29T04:47:01.000Z,-0.625
2019-01-29T04:48:02.000Z,-0.625
2019-01-29T04:49:01.000Z,-0.625
2019-01-29T04:50:01.000Z,-0.625
2019-01-29T04:51:02.000Z,-0.687
2019-01-29T04:52:01.000Z,-0.687
2019-01-29T04:53:01.000Z,-0.687
2019-01-29T04:54:02.000Z,-0.75
2019-01-29T04:55:01.000Z,-0.75
2019-01-29T04:56:01.000Z,-0.75
2019-01-29T04:57:01.000Z,-0.75
2019-01-29T04:58:01.000Z,-0.75
2019-01-29T04:59:01.000Z,-0.812
2019-01-29T05:00:02.000Z,-0.812
2019-01-29T05:01:01.000Z,-0.812
2019-01-29T05:02:02.000Z,-0.812
2019-01-29T05:03:01.000Z,-0.875
2019-01-29T05:04:01.000Z,-0.875
2019-01-29T05:05:01.000Z,-0.937
2019-01-29T05:06:02.000Z,-0.937
2019-01-29T05:07:01.000Z,-0.937
2019-01-29T05:08:01.000Z,-1
2019-01-29T05:09:01.000Z,-1
2019-01-29T05:10:01.000Z,-1.062
2019-01-29T05:11:01.000Z,-1.125
2019-01-29T05:12:01.000Z,-1.125
2019-01-29T05:13:01.000Z,-1.187
2019-01-29T05:14:01.000Z,-1.187
2019-01-29T05:15:01.000Z,-1.187
2019-01-29T05:16:02.000Z,-1.25
2019-01-29T05:17:01.000Z,-1.312
2019-01-29T05:18:02.000Z,-1.312
2019-01-29T05:19:01.000Z,-1.312
2019-01-29T05:20:01.000Z,-1.312
2019-01-29T05:21:02.000Z,-1.375
2019-01-29T05:22:01.000Z,-1.375
2019-01-29T05:23:01.000Z,-1.437
2019-01-29T05:24:02.000Z,-1.437
2019-01-29T05:25:01.000Z,-1.5
2019-01-29T05:26:01.000Z,-1.562
2019-01-29T05:27:02.000Z,-1.5
2019-01-29T05:28:01.000Z,-1.5
2019-01-29T05:29:01.000Z,-1.5
2019-01-29T05:30:01.000Z,-1.5
2019-01-29T05:31:01.000Z,-1.562
2019-01-29T05:32:02.000Z,-1.625
2019-01-29T05:33:01.000Z,-1.562
2019-01-29T05:34:02.000Z,-1.562
2019-01-29T05:35:01.000Z,-1.5
2019-01-29T05:36:01.000Z,-1.562
2019-01-29T05:38:02.000Z,-1.562
2019-01-29T05:39:01.000Z,-1.625
2019-01-29T05:40:02.000Z,-1.625
2019-01-29T05:41:01.000Z,-1.625
2019-01-29T05:42:01.000Z,-1.625
2019-01-29T05:43:02.000Z,-1.625
2019-01-29T05:44:01.000Z,-1.687
2019-01-29T05:45:01.000Z,-1.687
2019-01-29T05:46:02.000Z,-1.687
2019-01-29T05:47:01.000Z,-1.625
2019-01-29T05:48:01.000Z,-1.687
2019-01-29T05:49:01.000Z,-1.687
2019-01-29T05:50:01.000Z,-1.687
2019-01-29T05:51:02.000Z,-1.687
2019-01-29T05:52:01.000Z,-1.687
2019-01-29T05:53:01.000Z,-1.625
2019-01-29T05:54:02.000Z,-1.625
2019-01-29T05:55:01.000Z,-1.625
2019-01-29T05:56:01.000Z,-1.625
2019-01-29T05:57:01.000Z,-1.625
2019-01-29T05:58:01.000Z,-1.687
2019-01-29T05:59:01.000Z,-1.687
2019-01-29T06:00:01.000Z,-1.687
2019-01-29T06:01:01.000Z,-1.687
2019-01-29T06:02:01.000Z,-1.687
2019-01-29T06:03:01.000Z,-1.687
2019-01-29T06:04:01.000Z,-1.687
2019-01-29T06:05:01.000Z,-1.687
2019-01-29T06:06:01.000Z,-1.75
2019-01-29T06:07:01.000Z,-1.812
2019-01-29T06:08:01.000Z,-1.812
2019-01-29T06:09:01.000Z,-1.812
2019-01-29T06:10:01.000Z,-1.687
2019-01-29T06:11:01.000Z,-1.75
2019-01-29T06:12:01.000Z,-1.687
2019-01-29T06:13:01.000Z,-1.687
2019-01-29T06:14:01.000Z,-1.625
2019-01-29T06:15:01.000Z,-1.562
2019-01-29T06:16:02.000Z,-1.5
2019-01-29T06:17:01.000Z,-1.437
2019-01-29T06:18:02.000Z,-1.375
2019-01-29T06:19:01.000Z,-1.375
2019-01-29T06:20:02.000Z,-1.312
2019-01-29T06:21:01.000Z,-1.25
2019-01-29T06:22:01.000Z,-1.187
2019-01-29T06:23:01.000Z,-1.187
2019-01-29T06:24:01.000Z,-1.187
2019-01-29T06:25:01.000Z,-1.125
2019-01-29T06:26:01.000Z,-1.125
2019-01-29T06:27:01.000Z,-1.062
2019-01-29T06:28:01.000Z,-1.062
2019-01-29T06:29:02.000Z,-1.062
2019-01-29T06:30:01.000Z,-1
2019-01-29T06:31:01.000Z,-1
2019-01-29T06:32:02.000Z,-1
2019-01-29T06:33:01.000Z,-1
2019-01-29T06:34:01.000Z,-0.937
2019-01-29T06:35:01.000Z,-0.937
2019-01-29T06:36:01.000Z,-0.937
2019-01-29T06:37:01.000Z,-0.875
2019-01-29T06:38:02.000Z,-0.875
2019-01-29T06:39:01.000Z,-0.875
2019-01-29T06:40:02.000Z,-0.875
2019-01-29T06:41:01.000Z,-0.812
2019-01-29T06:42:02.000Z,-0.812
2019-01-29T06:43:01.000Z,-0.812
2019-01-29T06:44:01.000Z,-0.812
2019-01-29T06:45:01.000Z,-0.812
2019-01-29T06:46:01.000Z,-0.812
2019-01-29T06:47:01.000Z,-0.75
2019-01-29T06:48:01.000Z,-0.812
2019-01-29T06:49:01.000Z,-0.75
2019-01-29T06:50:02.000Z,-0.75
2019-01-29T06:51:01.000Z,-0.75
2019-01-29T06:52:01.000Z,-0.75
2019-01-29T06:53:01.000Z,-0.687
2019-01-29T06:54:01.000Z,-0.687
2019-01-29T06:55:01.000Z,-0.687
2019-01-29T06:56:01.000Z,-0.687
2019-01-29T06:57:01.000Z,-0.687
2019-01-29T06:58:01.000Z,-0.687
2019-01-29T06:59:01.000Z,-0.687
2019-01-29T07:00:02.000Z,-0.687
2019-01-29T07:01:01.000Z,-0.687
2019-01-29T07:02:01.000Z,-0.687
2019-01-29T07:03:02.000Z,-0.687
2019-01-29T07:04:01.000Z,-0.687
2019-01-29T07:05:02.000Z,-0.687
2019-01-29T07:06:01.000Z,-0.687
2019-01-29T07:07:01.000Z,-0.687
2019-01-29T07:08:01.000Z,-0.687
2019-01-29T07:09:01.000Z,-0.625
2019-01-29T07:10:01.000Z,-0.625
2019-01-29T07:11:01.000Z,-0.625
2019-01-29T07:12:01.000Z,-0.625
2019-01-29T07:13:02.000Z,-0.625
2019-01-29T07:14:01.000Z,-0.625
2019-01-29T07:15:01.000Z,-0.562
2019-01-29T07:16:02.000Z,-0.562
2019-01-29T07:17:01.000Z,-0.562
2019-01-29T07:18:02.000Z,-0.562
2019-01-29T07:19:01.000Z,-0.5
2019-01-29T07:20:01.000Z,-0.5
2019-01-29T07:21:02.000Z,-0.437
2019-01-29T07:22:01.000Z,-0.437
2019-01-29T07:23:02.000Z,-0.437
2019-01-29T07:24:01.000Z,-0.437
2019-01-29T07:25:01.000Z,-0.437
2019-01-29T07:26:01.000Z,-0.437
2019-01-29T07:27:01.000Z,-0.437
2019-01-29T07:28:02.000Z,-0.437
2019-01-29T07:29:01.000Z,-0.437
2019-01-29T07:30:02.000Z,-0.437
2019-01-29T07:31:01.000Z,-0.437
2019-01-29T07:32:02.000Z,-0.437
2019-01-29T07:33:01.000Z,-0.375
2019-01-29T07:34:01.000Z,-0.437
2019-01-29T07:35:02.000Z,-0.375
2019-01-29T07:36:01.000Z,-0.375
2019-01-29T07:37:01.000Z,-0.437
2019-01-29T07:38:01.000Z,-0.375
2019-01-29T07:39:02.000Z,-0.375
2019-01-29T07:40:01.000Z,-0.375
2019-01-29T07:41:01.000Z,-0.312
2019-01-29T07:42:01.000Z,-0.312
2019-01-29T07:43:02.000Z,-0.312
2019-01-29T07:44:01.000Z,-0.312
2019-01-29T07:45:01.000Z,-0.25
2019-01-29T07:46:02.000Z,-0.312
2019-01-29T07:47:01.000Z,-0.312
2019-01-29T07:48:01.000Z,-0.25
2019-01-29T07:49:01.000Z,-0.25
2019-01-29T07:50:01.000Z,-0.25
2019-01-29T07:51:01.000Z,-0.25
2019-01-29T07:52:01.000Z,-0.25
2019-01-29T07:53:02.000Z,-0.25
2019-01-29T07:54:01.000Z,-0.25
2019-01-29T07:55:01.000Z,-0.25
2019-01-29T07:56:01.000Z,-0.25
2019-01-29T07:57:01.000Z,-0.25
2019-01-29T07:58:02.000Z,-0.25
2019-01-29T07:59:01.000Z,-0.25
2019-01-29T08:00:01.000Z,-0.25
2019-01-29T08:01:01.000Z,-0.187
2019-01-29T08:02:01.000Z,-0.187
2019-01-29T08:03:02.000Z,-0.187
2019-01-29T08:04:01.000Z,-0.187
2019-01-29T08:05:01.000Z,-0.187
2019-01-29T08:06:01.000Z,-0.187
2019-01-29T08:07:01.000Z,-0.125
2019-01-29T08:08:02.000Z,-0.125
2019-01-29T08:09:01.000Z,-0.125
2019-01-29T08:10:02.000Z,-0.125
2019-01-29T08:11:01.000Z,-0.125
2019-01-29T08:12:01.000Z,-0.125
2019-01-29T08:13:01.000Z,-0.125
2019-01-29T08:14:01.000Z,-0.125
2019-01-29T08:15:02.000Z,-0.062
2019-01-29T08:16:01.000Z,-0.125
2019-01-29T08:17:02.000Z,-0.062
2019-01-29T08:18:01.000Z,-0.125
2019-01-29T08:19:02.000Z,-0.062
2019-01-29T08:20:01.000Z,-0.125
2019-01-29T08:21:01.000Z,-0.125
2019-01-29T08:22:01.000Z,-0.125
2019-01-29T08:23:01.000Z,-0.062
2019-01-29T08:24:02.000Z,-0.062
2019-01-29T08:25:02.000Z,-0.062
2019-01-29T08:26:01.000Z,-0.062
2019-01-29T08:27:01.000Z,-0.062
2019-01-29T08:28:01.000Z,-0.062
2019-01-29T08:29:02.000Z,0
2019-01-29T08:30:01.000Z,0
2019-01-29T08:31:01.000Z,0
2019-01-29T08:32:01.000Z,0
2019-01-29T08:33:01.000Z,0
2019-01-29T08:34:01.000Z,0
2019-01-29T08:35:01.000Z,0
2019-01-29T08:36:01.000Z,0
2019-01-29T08:37:02.000Z,0
2019-01-29T08:38:01.000Z,0.062
2019-01-29T08:39:01.000Z,0.062
2019-01-29T08:40:01.000Z,0.062
2019-01-29T08:41:01.000Z,0.062
2019-01-29T08:42:01.000Z,0.062
2019-01-29T08:43:01.000Z,0.062
2019-01-29T08:44:01.000Z,0.062
2019-01-29T08:45:01.000Z,0.125
2019-01-29T08:46:02.000Z,0.125
2019-01-29T08:47:01.000Z,0.125
2019-01-29T08:48:01.000Z,0.187
2019-01-29T08:49:02.000Z,0.125
2019-01-29T08:50:01.000Z,0.125
2019-01-29T08:51:01.000Z,0.125
2019-01-29T08:52:02.000Z,0.125
2019-01-29T08:53:01.000Z,0.187
2019-01-29T08:54:01.000Z,0.187
2019-01-29T08:55:01.000Z,0.187
2019-01-29T08:56:01.000Z,0.187
2019-01-29T08:57:01.000Z,0.187
2019-01-29T08:58:01.000Z,0.187
2019-01-29T08:59:01.000Z,0.187
2019-01-29T09:00:02.000Z,0.125
2019-01-29T09:01:01.000Z,0.125
2019-01-29T09:02:01.000Z,0.125
2019-01-29T09:03:02.000Z,0.187
2019-01-29T09:04:01.000Z,0.187
2019-01-29T09:05:02.000Z,0.187
2019-01-29T09:06:01.000Z,0.25
2019-01-29T09:07:01.000Z,0.25
2019-01-29T09:08:02.000Z,0.25
2019-01-29T09:09:01.000Z,0.312
2019-01-29T09:10:01.000Z,0.25
2019-01-29T09:11:01.000Z,0.25
2019-01-29T09:12:01.000Z,0.25
2019-01-29T09:13:01.000Z,0.312
2019-01-29T09:14:01.000Z,0.312
2019-01-29T09:15:01.000Z,0.312
2019-01-29T09:16:01.000Z,0.312
2019-01-29T09:17:02.000Z,0.312
2019-01-29T09:18:01.000Z,0.312
2019-01-29T09:19:01.000Z,0.375
2019-01-29T09:20:01.000Z,0.375
2019-01-29T09:21:01.000Z,0.375
2019-01-29T09:22:02.000Z,0.375
2019-01-29T09:23:01.000Z,0.375
2019-01-29T09:24:01.000Z,0.437
2019-01-29T09:25:02.000Z,0.5
2019-01-29T09:26:01.000Z,0.5
2019-01-29T09:27:02.000Z,0.5
2019-01-29T09:28:01.000Z,0.5
2019-01-29T09:29:01.000Z,0.5
2019-01-29T09:30:01.000Z,0.437
2019-01-29T09:31:01.000Z,0.5
2019-01-29T09:32:01.000Z,0.437
2019-01-29T09:33:01.000Z,0.5
2019-01-29T09:34:02.000Z,0.5
2019-01-29T09:35:01.000Z,0.5
2019-01-29T09:36:01.000Z,0.562
2019-01-29T09:37:01.000Z,0.562
2019-01-29T09:38:01.000Z,0.625
2019-01-29T09:39:02.000Z,0.625
2019-01-29T09:40:01.000Z,0.687
2019-01-29T09:41:01.000Z,0.687
2019-01-29T09:42:01.000Z,0.75
2019-01-29T09:43:02.000Z,0.75
2019-01-29T09:44:01.000Z,0.75
2019-01-29T09:45:01.000Z,0.75
2019-01-29T09:46:01.000Z,0.812
2019-01-29T09:47:02.000Z,0.812
2019-01-29T09:48:01.000Z,0.812
2019-01-29T09:49:01.000Z,0.875
2019-01-29T09:50:01.000Z,0.875
2019-01-29T09:51:02.000Z,0.875
2019-01-29T09:52:01.000Z,0.875
2019-01-29T09:53:01.000Z,0.875
2019-01-29T09:54:02.000Z,0.937
2019-01-29T09:55:02.000Z,0.937
2019-01-29T09:56:01.000Z,0.875
2019-01-29T09:57:01.000Z,0.937
2019-01-29T09:58:01.000Z,0.937
2019-01-29T09:59:02.000Z,0.937
2019-01-29T10:00:01.000Z,1.062
2019-01-29T10:01:01.000Z,1.187
2019-01-29T10:02:01.000Z,1.25
2019-01-29T10:03:01.000Z,1.25
2019-01-29T10:04:02.000Z,1.187
2019-01-29T10:05:01.000Z,1.187
2019-01-29T10:06:01.000Z,1.187
2019-01-29T10:07:02.000Z,1.25
2019-01-29T10:08:01.000Z,1.312
2019-01-29T10:09:02.000Z,1.312
2019-01-29T10:10:01.000Z,1.25
2019-01-29T10:11:01.000Z,1.25
2019-01-29T10:12:01.000Z,1.25
2019-01-29T10:13:02.000Z,1.25
2019-01-29T10:14:01.000Z,1.187
2019-01-29T10:15:01.000Z,1.187
2019-01-29T10:16:01.000Z,1.25
2019-01-29T10:17:02.000Z,1.312
2019-01-29T10:18:01.000Z,1.312
2019-01-29T10:19:01.000Z,1.375
2019-01-29T10:20:01.000Z,1.5
2019-01-29T10:21:01.000Z,1.562
2019-01-29T10:22:01.000Z,1.562
2019-01-29T10:23:02.000Z,1.562
2019-01-29T10:24:01.000Z,1.562
2019-01-29T10:25:01.000Z,1.625
2019-01-29T10:26:02.000Z,1.625
2019-01-29T10:27:01.000Z,1.562
2019-01-29T10:28:01.000Z,1.562
2019-01-29T10:29:01.000Z,1.625
2019-01-29T10:30:01.000Z,1.625
2019-01-29T10:31:02.000Z,1.687
2019-01-29T10:32:01.000Z,1.75
2019-01-29T10:33:01.000Z,1.75
2019-01-29T10:34:02.000Z,1.75
2019-01-29T10:35:01.000Z,1.687
2019-01-29T10:36:01.000Z,1.687
2019-01-29T10:37:02.000Z,1.75
2019-01-29T10:38:01.000Z,1.812
2019-01-29T10:39:02.000Z,1.875
2019-01-29T10:40:01.000Z,1.937
2019-01-29T10:41:01.000Z,1.875
2019-01-29T10:42:01.000Z,1.812
2019-01-29T10:43:02.000Z,1.875
2019-01-29T10:44:02.000Z,1.875
2019-01-29T10:45:01.000Z,1.875
2019-01-29T10:46:01.000Z,1.875
2019-01-29T10:47:02.000Z,1.937
2019-01-29T10:48:01.000Z,1.875
2019-01-29T10:49:01.000Z,1.937
2019-01-29T10:50:01.000Z,2
2019-01-29T10:51:01.000Z,2
2019-01-29T10:52:02.000Z,2.062
2019-01-29T10:53:01.000Z,2.062
2019-01-29T10:54:01.000Z,2.062
2019-01-29T10:55:01.000Z,2
2019-01-29T10:56:01.000Z,1.937
2019-01-29T10:57:01.000Z,1.875
2019-01-29T10:58:01.000Z,1.875
2019-01-29T10:59:01.000Z,1.937
2019-01-29T11:00:01.000Z,1.937
2019-01-29T11:01:01.000Z,1.937
2019-01-29T11:02:02.000Z,1.937
2019-01-29T11:03:01.000Z,2
2019-01-29T11:04:01.000Z,2
2019-01-29T11:05:02.000Z,2.062
2019-01-29T11:06:01.000Z,2.062
2019-01-29T11:07:01.000Z,2.125
2019-01-29T11:08:02.000Z,2.062
2019-01-29T11:09:01.000Z,2.062
2019-01-29T11:10:02.000Z,2.062
2019-01-29T11:11:01.000Z,2.062
2019-01-29T11:12:02.000Z,2.187
2019-01-29T11:13:01.000Z,2.125
2019-01-29T11:14:01.000Z,2.125
2019-01-29T11:15:02.000Z,2.062
2019-01-29T11:16:01.000Z,2
2019-01-29T11:17:02.000Z,2.062
2019-01-29T11:18:01.000Z,2.125
2019-01-29T11:19:02.000Z,2.062
2019-01-29T11:20:02.000Z,2
2019-01-29T11:21:01.000Z,2
2019-01-29T11:22:02.000Z,2
2019-01-29T11:23:01.000Z,2
2019-01-29T11:24:01.000Z,2
2019-01-29T11:25:02.000Z,2.062
2019-01-29T11:26:01.000Z,2.125
2019-01-29T11:27:01.000Z,2.25
2019-01-29T11:28:02.000Z,2.25
2019-01-29T11:29:01.000Z,2.312
2019-01-29T11:30:01.000Z,2.25
2019-01-29T11:31:02.000Z,2.25
2019-01-29T11:32:01.000Z,2.25
2019-01-29T11:33:01.000Z,2.25
2019-01-29T11:34:02.000Z,2.25
2019-01-29T11:35:01.000Z,2.312
2019-01-29T11:36:01.000Z,2.375
2019-01-29T11:37:01.000Z,2.375
2019-01-29T11:38:01.000Z,2.375
2019-01-29T11:39:02.000Z,2.312
2019-01-29T11:40:01.000Z,2.312
2019-01-29T11:41:01.000Z,2.312
2019-01-29T11:42:01.000Z,2.375
2019-01-29T11:43:02.000Z,2.375
2019-01-29T11:44:01.000Z,2.375
2019-01-29T11:45:01.000Z,2.375
2019-01-29T11:46:02.000Z,2.375
2019-01-29T11:47:01.000Z,2.375
2019-01-29T11:48:02.000Z,2.312
2019-01-29T11:49:01.000Z,2.312
2019-01-29T11:50:01.000Z,2.312
2019-01-29T11:51:02.000Z,2.437
2019-01-29T11:52:01.000Z,2.437
2019-01-29T11:53:02.000Z,2.437
2019-01-29T11:54:01.000Z,2.5
2019-01-29T11:55:01.000Z,2.562
2019-01-29T11:56:02.000Z,2.5
2019-01-29T11:57:01.000Z,2.562
2019-01-29T11:58:01.000Z,2.562
2019-01-29T11:59:01.000Z,2.5
2019-01-29T12:00:01.000Z,2.562
2019-01-29T12:01:02.000Z,2.5
2019-01-29T12:02:01.000Z,2.5
2019-01-29T12:03:01.000Z,2.5
2019-01-29T12:04:02.000Z,2.5
2019-01-29T12:05:01.000Z,2.562
2019-01-29T12:06:01.000Z,2.5
2019-01-29T12:07:02.000Z,2.437
2019-01-29T12:08:01.000Z,2.5
2019-01-29T12:09:01.000Z,2.5
2019-01-29T12:10:01.000Z,2.5
2019-01-29T12:11:01.000Z,2.5
2019-01-29T12:12:01.000Z,2.437
2019-01-29T12:13:01.000Z,2.437
2019-01-29T12:14:01.000Z,2.375
2019-01-29T12:15:01.000Z,2.375
2019-01-29T12:16:01.000Z,2.437
2019-01-29T12:17:01.000Z,2.437
2019-01-29T12:18:01.000Z,2.5
2019-01-29T12:19:02.000Z,2.5
2019-01-29T12:20:01.000Z,2.562
2019-01-29T12:21:02.000Z,2.562
2019-01-29T12:22:01.000Z,2.562
2019-01-29T12:23:01.000Z,2.625
2019-01-29T12:24:02.000Z,2.687
2019-01-29T12:25:01.000Z,2.75
2019-01-29T12:26:01.000Z,2.812
2019-01-29T12:27:01.000Z,2.812
2019-01-29T12:28:02.000Z,2.75
2019-01-29T12:29:01.000Z,2.75
2019-01-29T12:30:01.000Z,2.625
2019-01-29T12:31:02.000Z,2.562
2019-01-29T12:32:02.000Z,2.562
2019-01-29T12:33:01.000Z,2.562
2019-01-29T12:34:01.000Z,2.562
2019-01-29T12:35:02.000Z,2.562
2019-01-29T12:36:01.000Z,2.562
2019-01-29T12:37:01.000Z,2.562
2019-01-29T12:38:02.000Z,2.562
2019-01-29T12:39:01.000Z,2.562
2019-01-29T12:40:01.000Z,2.562
2019-01-29T12:41:01.000Z,2.5
2019-01-29T12:42:01.000Z,2.5
2019-01-29T12:43:02.000Z,2.5
2019-01-29T12:44:01.000Z,2.5
2019-01-29T12:45:01.000Z,2.437
2019-01-29T12:46:02.000Z,2.437
2019-01-29T12:47:01.000Z,2.375
2019-01-29T12:48:02.000Z,2.312
2019-01-29T12:49:01.000Z,2.25
2019-01-29T12:50:01.000Z,2.187
2019-01-29T12:51:02.000Z,2.125
2019-01-29T12:52:01.000Z,2.062
2019-01-29T12:53:01.000Z,2.062
2019-01-29T12:54:02.000Z,2.062